Terminal Aerodrome Forecast
Issued by NWS

Home | Current Version | Previous Version | Text Only | Print | Product List | Glossary On
Versions: 1 2 3 4 5 6 7 8 9 10 11 12 13 14
000
FTUS43 KFGF 200522 AAA
TAFDVL
TAF AMD
KDVL 200522Z 2005/2106 VRB05KT P6SM SCT200
     FM201000 21008KT P6SM BKN250
     FM201900 26015G24KT P6SM SCT250
     FM202300 30020G32KT P6SM SCT150
     FM210400 31023G35KT P6SM BKN050=

USA.gov is the U.S. government's official web portal to all federal, state and local government web resources and services.